Accueil
METAR-TAF:

METAR-TAF

Aéroports :

Chumpon, Thaïlande

latitude: 10-42-40N, longitude: 099-21-42E, altitude: 5 m

Observation

Le bulletin a été fait il y a 6 heures et 35 minutes, à 12:00 UTC
Vent 4 kt de nord/nord-est, variant entre ouest/nord-ouest et est
Température 27°C
Humidité 79%
Pression 1010 hPa
Visibilité: 9000 m
Quelques nuages à une hauteur de 2000 ft
Nuages épars à une hauteur de 10000 ft

METAR: VTSE 021200Z 02004KT 290V090 9000 FEW020 SCT100 27/23 Q1010 NOSIG

Heure: 01:35 (18:35 UTC)

Prévision

Le bulletin a été fait il y a 1 heure et 35 minutes, à 17:00 UTC
Prévision valable du 02 à 18 UTC au 03 à 18 UTC
Vent 5 kt de nord/nord-est
Visibilité: 8000 m
Quelques nuages à une hauteur de 2000 ft
Nuages épars à une hauteur de 10000 ft
Temporairement
du 03 à 05 UTC au 03 à 11 UTC
Vent 10 kt de nord-est avec des rafales jusqu'à 20 kt

TAF: VTSE 021700Z 0218/0318 02005KT 8000 FEW020 SCT100 TEMPO 0305/0311 04010G20KT

Observations et prévisions météorologiques de plus de 4000 aéroports (messages METAR et TAF).

Les stations disponibles sont représentées par des disques jaunes et rouges sur la carte.

Passer la souris dessus pour voir le nom de la station.

Cliquer dessus pour voir les observations et prévisions météorologiques.

Pour changer de carte: cliquez sur les boutons verts avec une croix noire pour zoomer, sur le bouton vert avec un tiret pour effectuer un zoom arrière, ou sur les flèches vertes pour les cartes adjacentes.


METAR-TAF: